Líbí se Vám tento web? Budeme velmi rádi, pokud přidáte hodnocení +1

Seznam meteostanic a jejich METAR

Vyhledat místa podle abecedy:
A B C D E F G H I J K L M N O P Q R S T U V W X Y Z

Filtrovat:

ID stanice:
a/nebo
Název místa (fulltext):
 
Místo (ID)Naposledy načteno 
Kadaň - Tušimice (Tusimice) 17.01.2018 21:00 UTC Zobrazit data
Místo: Kadaň - Tušimice
Teplota: 2 °C (pocitová: -8.6 °C)
Vítr: 10 m/s z(e) 290°
Počasí: sněží
Dohlednost: 8 km
Zákl. oblačnosti: 7/8 870 m
Vlhkost: 81%
Karlovy Vary (K.Vary) 17.01.2018 21:00 UTC Zobrazit data
Místo: Karlovy Vary
Teplota: 0 °C (pocitová: -9.7 °C)
Vítr: 6 m/s z(e) 260°
Počasí: sněží
Dohlednost: 20 km
Zákl. oblačnosti: 3/8 390 m;5/8 450 m
Vlhkost: 87%
Kocelovice (Kocelovice) 17.01.2018 21:00 UTC Zobrazit data
Místo: Kocelovice
Teplota: 0 °C (pocitová: -11.9 °C)
Vítr: 11 m/s z(e) 280°
Počasí: sněží
Dohlednost: 5 km
Zákl. oblačnosti: 1/8 510 m;3/8 1020 m
Vlhkost: 93%
Kopisty (Kopisty) 17.01.2018 21:00 UTC Zobrazit data
Místo: Kopisty
Teplota: 0 °C (pocitová: -5.9 °C)
Vítr: 2 m/s z(e) 240°
Počasí: sněží
Dohlednost: 2100 m
Zákl. oblačnosti: 8/8 150 m
Vlhkost: 100%
Kostelní Myslová (K.Myslova) 17.01.2018 20:00 UTC Zobrazit data
Místo: Kostelní Myslová
Teplota: 0 °C (pocitová: -9.2 °C)
Vítr: 5 m/s z(e) 280°
Počasí: skoro zataženo
Dohlednost: 18 km
Zákl. oblačnosti: 5/8 780 m;4/8 1170 m
Vlhkost: 80%
Křešín - Kramolín (Kramolin) 17.01.2018 21:00 UTC Zobrazit data
Místo: Křešín - Kramolín
Teplota: 0 °C (pocitová: -9.7 °C)
Vítr: 6 m/s z(e) 260°
Počasí: sněží
Dohlednost: 2600 m
Zákl. oblačnosti: 1/8 300 m;3/8 1260 m
Vlhkost: 87%
Kuchařovice - Znojmo (Kucharovic) 17.01.2018 21:00 UTC Zobrazit data
Místo: Kuchařovice - Znojmo
Teplota: 1 °C (pocitová: -10 °C)
Vítr: 10 m/s z(e) 290°
Počasí: zataženo
Dohlednost: 20 km
Zákl. oblačnosti: 3/8 1380 m;5/8 6000 m
Vlhkost: 75%
Kabul (OAKB) 17.01.2018 20:50 UTC Zobrazit METAR
OAKB 172050Z 14003KT 2400 FU FEW050 M03/M06 Q1023 NOSIG RMK A3023 YLO YLO
Kajaani (EFKI) 17.01.2018 20:50 UTC Zobrazit METAR
EFKI 172050Z 10008KT 5000 -SN BKN044 BKN070 M10/M12 Q1005
Kardla (EEKA) 17.01.2018 15:50 UTC Zobrazit METAR
EEKA 171550Z 11013KT 3600 SN DRSN SCT013 BKN034 M07/M09 Q0995
Karlsruhe/ Baden-Baden (EDSB) 17.01.2018 20:50 UTC Zobrazit METAR
EDSB 172050Z 19011KT 7000 SHRA SCT013 BKN020 OVC026 03/02 Q1014
Karup (EKKA) 17.01.2018 19:50 UTC Zobrazit METAR
EKKA 171950Z 21006KT 3500 -SN FEW003 BKN030 00/M00 Q0992 R27L/550095
Kathmandu (VNKT) 17.01.2018 20:50 UTC Zobrazit METAR
VNKT 172050Z 10003KT 4000 BR FEW015 06/05 Q1017 NOSIG
Katowice (EPKT) 17.01.2018 19:00 UTC Zobrazit METAR
EPKT 171900Z 27013KT 9999 OVC009 M00/M01 Q0998
Kaunas (EYKA) 17.01.2018 18:50 UTC Zobrazit METAR
EYKA 171850Z VRB01KT 1500 SN BKN020 OVC034 M06/M07 Q0992 R08/490294
Kavala (LGKV) 17.01.2018 20:50 UTC Zobrazit METAR
LGKV 172050Z 00000KT 9999 SCT025 BKN070 09/08 Q0991
Kazan (UWKD) Zatím nenačteno  
Kefallinia (LGKF) 17.01.2018 17:50 UTC Zobrazit METAR
LGKF 171750Z 25007KT 9999 SCT016 BKN025 15/13 Q1006
Kemi (EFKE) 17.01.2018 20:50 UTC Zobrazit METAR
EFKE 172050Z AUTO 09006KT 9999 -SG SCT046 BKN073 M12/M13 Q1006
Kerkira (LGKR) 17.01.2018 20:50 UTC Zobrazit METAR
LGKR 172050Z 31014KT 9999 FEW020 SCT035 BKN080 12/07 Q1002 NOSIG
Kerry (EIKY) 17.01.2018 10:00 UTC Zobrazit METAR
EIKY 171000Z 28008KT 240V300 9999 BKN031 06/02 Q1012 RESHRA
Khartoum (HSSS) 17.01.2018 21:00 UTC Zobrazit METAR
HSSS 172100Z 36004KT CAVOK 23/03 Q1013 NOSIG
Kigali (HRYR) 17.01.2018 10:00 UTC Zobrazit METAR
HRYR 171000Z VRB05KT 9999 SCT025 SCT300 25/16 Q1018 NOSIG
Kingston (MKJP) 17.01.2018 17:00 UTC Zobrazit METAR
MKJP 171700Z 23004KT 9999 FEW022 30/21 Q1016
Kingstown (TVSV) 15.02.2017 01:00 UTC Zobrazit METAR
TVSV 150100Z 06009KT 9999 SCT015 26/19 Q1015
Kinshasa (FZAA) 17.01.2018 19:00 UTC Zobrazit METAR
FZAA 171900Z 00000KT 4000 BR NSC 28/24 Q1009 BECMG 2000
Kittila (EFKT) 17.01.2018 20:50 UTC Zobrazit METAR
EFKT 172050Z AUTO 09004KT 1500 -SN BKN025 OVC048 M16/M18 Q1007
Klagenfurt (LOWK) 17.01.2018 20:50 UTC Zobrazit METAR
LOWK 172050Z AUTO 31004KT 9999 FEW060 OVC070 M01/M05 Q1009 NOSIG
Kortrijk-Wevelgem (EBKT) Zatím nenačteno  
Kosice (LZKZ) 17.01.2018 21:00 UTC Zobrazit METAR
LZKZ 172100Z 28004KT 8000 FEW008 SCT060 M03/M05 Q1000
Krakow (EPKK) 17.01.2018 19:00 UTC Zobrazit METAR
EPKK 171900Z 26012KT 9999 FEW015 BKN023 01/M01 Q0999 R25/52//93
Kuala Lumpur (WMKK) 17.01.2018 20:00 UTC Zobrazit METAR
WMKK 172000Z 02004KT 310V080 9000 FEW030 SCT140 BKN280 25/24 Q1007 NOSIG
Kuopio (EFKU) 17.01.2018 20:50 UTC Zobrazit METAR
EFKU 172050Z AUTO 09004KT 6000 -SN OVC022 M08/M10 Q1004
Kuressaare (EEKE) 17.01.2018 16:50 UTC Zobrazit METAR
EEKE 171650Z 15012KT 9999 -SN DRSN FEW012 OVC015 M04/M05 Q0993 R17/450095
Kuwait (OKBK) 17.01.2018 21:00 UTC Zobrazit METAR
OKBK 172100Z 16004KT CAVOK 10/04 Q1016 NOSIG
Kyiv (UKBB) Zatím nenačteno  
Reklama

Počasí na Váš email

Emaily jsou bez reklamy a bez spamu



Odhlásit newsletter

Reklama


Lunární kalendář

  • 24.01.
  • 31.01.
  • 07.02.
  • 15.02.



Jsme na Google Plus

Reklama
Povinné ručení



Může Vás také zajímat:


Reklama